Factory Village, New York
Current Conditions -  °F | °C
As of 11:51 PM on Sunday 21 Dec 2014 (Local Time) from KALB Reporting Station
Overcast Overcast  
Wind Chill: 25°   Ceiling: 3000
Heat Index: 30°   Visibility: 10mi
Dew Point: 23°   Wind: 5mph
Humidity: 75%   Direction: 360°N
Pressure: 30.37"   Gusts: NA
Location:  43.002°N, 73.8759°W
Report Text: KALB 220451Z 36004KT 10SM BKN030 OVC042 M01/M05 A3037 RMK AO2 SLP287 T10111050 410061028
Loading
Personal Weather Stations






























Interactive Weather Map New forecast layout! Learn more

10-Day Weather Forecast

Advertisements
Track Severe Weather on mobile